Aérodrome :
LOGIN :

S'inscrire | Disclaimer

   EN    FR    IT 

 










Légende :    VFR   VFR Marginal   IFR   IFR Intensif   IFR Très Intensif
Visi : 
Plafond : 
>= 8 km
>= 3000ft
5 à 8 km
1000 à 3000 ft
1500m à 5 km
500 à 1000 ft
800 à 1500m
200 à 500 ft
< 800m
< 200 ft
Symboles :   Orages  Brouillard  Fortes neiges  Fortes précipitations  Vent > 20 kt
SIGMETs :   Divers  Orages  Givrage  Turbulence  Onde Orograph.  Cendres Volcan.






- Altitude de l'aérodrome : 37 ft


EHVL - Vlieland Heliport

DERNIER METAR :
  • 301626Z AUTO 30012KT 9999 FEW010 SCT075 OVC130 18/14 Q1012 BLU

METARs EXPIRÉS :
  • 301559Z AUTO 31010KT 9999 SCT009 BKN010 OVC075 18/15 Q1012 GRN
  • 301555Z AUTO 31010KT 9999 SCT009 OVC075 18/15 Q1012 GRN
  • 301535Z AUTO 33009KT 9999 FEW008 BKN075 OVC140 18/15 Q1012 BLU
  • 301529Z AUTO 32009KT 9999 FEW009 SCT010 OVC075 18/15 Q1012 GRN
  • 301455Z AUTO 32009KT 9999 FEW008 BKN150 BKN340 19/15 Q1012 BLU
  • 301444Z AUTO 31008KT 9999 FEW008 OVC140 19/15 Q1012 BLU
  • 301435Z AUTO 31009KT 9999 SCT008 OVC140 19/15 Q1012 GRN
  • 301425Z AUTO 31010KT 9999 SCT008 BKN009 OVC140 19/15 Q1012 GRN
  • 301355Z AUTO 30010KT 9999 BKN008 BKN009 OVC150 19/15 Q1012 GRN
  • 301333Z AUTO 31009KT 9999 SCT007 OVC140 19/15 Q1012 GRN

Prévision TAF périmée.



MET'MAP, la Météo Aéronautique d'un coup d'oeil ! - Copyright ORBIFLY Décembre 2007 - Disclaimer

ORBIFLY MET'MAP TEAM :

Programmation & Développement : Alexandra Zaïnal
Sur une idée originale de : Baudouin d'Aumeries
Soutien technique & logistique : Manuel Goepfert
Assistance : Marc-Olivier Méhu




SOURCES & CREDITS :

   NOAA